Time;durP1;ratioP1;P1;durP2;ratioP2;P2;SDS_P1;SDS_P2;PMS_P1;PMS_P2;Temp;Humidity;BMP_temperature;BMP_pressure;BME280_temperature;BME280_humidity;BME280_pressure;Samples;Min_cycle;Max_cycle;Signal;HPM_P1;HPM_P2
2020/12/16 00:00:10;;;;;;;;;15.75;15.75;;;;;3.53;74.93;102183.50;4419950;32;12327;-78
2020/12/16 00:02:45;;;;;;;;;21.00;21.00;;;;;3.10;75.93;102190.38;4433606;32;12364;-78
2020/12/16 00:05:22;;;;;;;;;17.25;17.25;;;;;3.50;74.96;102178.50;4433738;32;12345;-78
2020/12/16 00:07:51;;;;;;;;;20.50;20.50;;;;;3.65;74.25;102186.16;4433183;32;12308;-77
2020/12/16 00:10:41;;;;;;;;;22.00;22.00;;;;;3.66;74.18;102188.63;4424081;32;12307;-79
2020/12/16 00:13:36;;;;;;;;;24.75;22.25;;;;;3.41;74.75;102193.66;4432184;32;12344;-79
2020/12/16 00:16:32;;;;;;;;;20.75;20.75;;;;;3.69;73.94;102185.41;4431698;32;12359;-79
2020/12/16 00:19:28;;;;;;;;;22.75;22.75;;;;;3.47;74.24;102185.31;4435204;32;12402;-79
2020/12/16 00:21:59;;;;;;;;;19.50;19.25;;;;;3.70;73.46;102202.66;4436872;32;12336;-78
2020/12/16 00:24:27;;;;;;;;;24.00;22.50;;;;;3.41;74.51;102204.59;4413540;32;12389;-79
2020/12/16 00:26:54;;;;;;;;;17.25;17.25;;;;;3.55;74.25;102201.31;4423753;32;12326;-79
2020/12/16 00:29:51;;;;;;;;;32.25;30.75;;;;;3.46;74.59;102196.50;4435299;32;13025;-78
2020/12/16 00:32:40;;;;;;;;;23.75;23.75;;;;;3.75;73.62;102202.72;4436016;32;13076;-78
2020/12/16 00:35:22;;;;;;;;;25.50;23.75;;;;;3.39;74.72;102218.53;4435156;32;12349;-79
2020/12/16 00:37:53;;;;;;;;;22.00;22.00;;;;;3.21;75.31;102211.34;4435980;32;12358;-77
2020/12/16 00:40:49;;;;;;;;;19.50;19.50;;;;;3.36;75.08;102216.28;4436313;32;12428;-78
2020/12/16 00:43:44;;;;;;;;;19.00;19.00;;;;;3.43;74.90;102211.47;4435529;32;12507;-77
2020/12/16 00:46:40;;;;;;;;;22.33;21.67;;;;;3.35;75.42;102212.72;4434027;32;12996;-77
2020/12/16 00:49:21;;;;;;;;;18.67;18.33;;;;;3.12;76.18;102209.25;4436403;32;12298;-77
2020/12/16 00:51:51;;;;;;;;;25.33;24.67;;;;;3.17;75.92;102206.63;4429467;32;12283;-78
2020/12/16 00:54:48;;;;;;;;;28.00;21.50;;;;;3.39;75.72;102215.78;4417587;32;12332;-78
2020/12/16 00:57:34;;;;;;;;;25.00;25.00;;;;;3.46;75.24;102215.66;4437064;32;13028;-78
2020/12/16 01:00:30;;;;;;;;;36.67;35.67;;;;;3.67;74.86;102222.28;4423776;32;12291;-78
2020/12/16 01:03:26;;;;;;;;;36.00;34.00;;;;;3.79;74.30;102217.59;4435379;32;8929;-78
2020/12/16 01:05:53;;;;;;;;;26.25;25.50;;;;;3.76;74.23;102213.44;4436214;32;12367;-78
2020/12/16 01:08:48;;;;;;;;;23.25;22.75;;;;;3.54;74.19;102213.34;4435384;32;12324;-78
2020/12/16 01:11:44;;;;;;;;;20.75;16.50;;;;;3.74;73.68;102212.84;4434454;32;12969;-77
2020/12/16 01:14:33;;;;;;;;;28.75;28.75;;;;;3.49;73.77;102204.19;4434802;32;12408;-78
2020/12/16 01:17:29;;;;;;;;;19.25;19.25;;;;;3.31;74.53;102208.81;4434059;32;12412;-78
2020/12/16 01:20:26;;;;;;;;;20.75;20.75;;;;;3.68;73.35;102208.38;4434876;32;12319;-78
2020/12/16 01:23:29;;;;;;;;;15.50;15.50;;;;;3.46;73.75;102197.34;4434814;32;12350;-79
2020/12/16 01:26:19;;;;;;;;;14.00;14.00;;;;;3.50;73.51;102200.38;4420597;32;12449;-79
2020/12/16 01:29:15;;;;;;;;;17.00;17.00;;;;;3.18;73.97;102189.97;4431396;32;12985;-79
2020/12/16 01:32:14;;;;;;;;;18.00;16.25;;;;;3.39;73.73;102193.91;4436314;32;12387;-80
2020/12/16 01:35:10;;;;;;;;;12.25;12.25;;;;;3.28;74.30;102208.47;4433891;32;12380;-79
2020/12/16 01:38:05;;;;;;;;;20.00;18.75;;;;;2.96;74.96;102208.94;4430053;32;12284;-79
2020/12/16 01:40:36;;;;;;;;;18.25;18.25;;;;;3.24;74.46;102210.03;4451615;32;12284;-79
2020/12/16 01:43:38;;;;;;;;;16.75;16.75;;;;;3.23;74.30;102214.69;4435284;32;12363;-80
2020/12/16 01:46:06;;;;;;;;;19.00;17.67;;;;;2.92;75.15;102213.25;4434992;32;12300;-78
2020/12/16 01:49:02;;;;;;;;;25.50;23.75;;;;;3.46;73.77;102215.66;4433858;32;12451;-78
2020/12/16 01:52:01;;;;;;;;;20.25;17.50;;;;;3.58;73.31;102214.50;4418853;32;12439;-78
2020/12/16 01:54:34;;;;;;;;;23.50;22.50;;;;;3.54;73.09;102210.59;4426011;32;12298;-78
2020/12/16 01:57:37;;;;;;;;;19.33;19.33;;;;;3.47;73.76;102209.94;4433303;32;12309;-78
2020/12/16 02:00:34;;;;;;;;;18.00;18.00;;;;;3.46;73.62;102227.41;4432716;32;12450;-78
2020/12/16 02:03:31;;;;;;;;;19.00;17.75;;;;;3.40;73.80;102219.38;4434864;32;12335;-78
2020/12/16 02:06:33;;;;;;;;;17.25;17.25;;;;;3.39;73.36;102221.28;4434943;32;12433;-77
2020/12/16 02:09:28;;;;;;;;;19.50;18.25;;;;;3.45;72.82;102224.91;4435483;32;12404;-78
2020/12/16 02:12:35;;;;;;;;;16.00;14.50;;;;;3.69;72.10;102222.91;4434464;32;12438;-78
2020/12/16 02:15:05;;;;;;;;;25.50;24.50;;;;;3.59;72.15;102231.72;4422019;32;12393;-79
2020/12/16 02:18:01;;;;;;;;;15.00;15.00;;;;;3.62;71.85;102226.59;4418121;32;12434;-78
2020/12/16 02:20:57;;;;;;;;;18.50;18.50;;;;;3.67;71.50;102230.50;4428396;32;12387;-78
2020/12/16 02:24:04;;;;;;;;;16.50;16.50;;;;;3.75;71.12;102230.91;4431409;32;12321;-78
2020/12/16 02:26:59;;;;;;;;;18.25;18.25;;;;;3.85;70.67;102225.63;4433583;32;12305;-77
2020/12/16 02:29:56;;;;;;;;;6.25;6.25;;;;;3.54;71.27;102234.41;4435389;32;12378;-77
2020/12/16 02:32:27;;;;;;;;;24.50;24.50;;;;;3.75;70.83;102230.91;4427761;32;12250;-78
2020/12/16 02:34:56;;;;;;;;;27.00;26.75;;;;;3.83;70.17;102226.94;4437768;32;12277;-78
2020/12/16 02:37:46;;;;;;;;;14.25;14.25;;;;;4.01;69.82;102228.62;4449976;32;13051;-78
2020/12/16 02:40:13;;;;;;;;;17.50;17.50;;;;;4.08;69.46;102224.62;4442129;32;12440;-78
2020/12/16 02:42:41;;;;;;;;;15.50;15.50;;;;;3.90;69.60;102239.38;4435120;32;12488;-77
2020/12/16 02:45:37;;;;;;;;;17.00;15.00;;;;;4.13;69.19;102234.81;4421176;32;12398;-78
2020/12/16 02:48:32;;;;;;;;;12.00;12.00;;;;;4.22;68.61;102232.47;4433769;32;12331;-78
2020/12/16 02:51:14;;;;;;;;;10.50;9.75;;;;;3.79;69.23;102237.56;4434416;32;12291;-78
2020/12/16 02:54:04;;;;;;;;;15.75;14.50;;;;;3.99;69.29;102245.31;4434399;32;12365;-78
2020/12/16 02:57:00;;;;;;;;;17.25;17.25;;;;;3.96;69.47;102243.03;4433229;32;12312;-77
2020/12/16 02:59:35;;;;;;;;;26.50;21.00;;;;;3.72;70.13;102252.50;4433834;32;12386;-77
2020/12/16 03:02:31;;;;;;;;;6.75;6.75;;;;;3.74;70.29;102247.59;4433261;32;12342;-76
2020/12/16 03:05:03;;;;;;;;;17.75;15.00;;;;;3.83;69.59;102244.22;4434905;32;12257;-79
2020/12/16 03:07:59;;;;;;;;;12.00;12.00;;;;;3.69;69.89;102250.25;4424766;32;12373;-77
2020/12/16 03:10:55;;;;;;;;;15.00;15.00;;;;;3.79;69.69;102240.31;4419966;32;12335;-78
2020/12/16 03:13:51;;;;;;;;;13.75;13.75;;;;;3.82;69.49;102245.28;4418621;32;12345;-77
2020/12/16 03:16:33;;;;;;;;;15.50;14.00;;;;;3.76;69.80;102256.41;4439433;32;12365;-79
2020/12/16 03:19:30;;;;;;;;;12.75;12.75;;;;;3.91;69.05;102248.44;4432788;32;12320;-78
2020/12/16 03:22:28;;;;;;;;;16.25;14.75;;;;;3.77;69.48;102258.06;4434071;32;12351;-79
2020/12/16 03:24:57;;;;;;;;;13.25;13.25;;;;;3.74;69.67;102259.38;4428562;32;12287;-77
2020/12/16 03:27:52;;;;;;;;;12.00;12.00;;;;;3.56;69.85;102265.06;4433352;32;12367;-80
2020/12/16 03:30:48;;;;;;;;;11.50;11.50;;;;;3.56;69.79;102265.88;4433106;32;12264;-80
2020/12/16 03:33:46;;;;;;;;;14.00;14.00;;;;;3.61;69.91;102270.63;4420994;32;12301;-80
2020/12/16 03:36:17;;;;;;;;;15.00;15.00;;;;;3.88;69.42;102268.09;4433269;32;12341;-79
2020/12/16 03:38:51;;;;;;;;;12.00;12.00;;;;;3.65;70.11;102270.97;4421860;32;12322;-78
2020/12/16 03:41:50;;;;;;;;;18.00;16.75;;;;;3.78;69.62;102276.12;4429387;32;12967;-79
2020/12/16 03:44:18;;;;;;;;;18.75;18.25;;;;;3.75;70.01;102273.87;4420688;32;12333;-80
2020/12/16 03:46:59;;;;;;;;;19.00;17.25;;;;;3.69;70.33;102277.63;4419317;32;12371;-86
2020/12/16 03:49:46;;;;;;;;;12.00;12.00;;;;;3.62;70.53;102275.03;4418302;32;12382;-81
2020/12/16 03:52:13;;;;;;;;;19.50;18.50;;;;;3.50;70.66;102287.91;4436066;32;12393;-82
2020/12/16 03:54:47;;;;;;;;;19.00;19.00;;;;;3.46;70.92;102286.78;4435601;32;12381;-81
2020/12/16 03:57:15;;;;;;;;;22.50;22.50;;;;;3.54;70.70;102289.94;4436224;32;12363;-81
2020/12/16 04:00:11;;;;;;;;;20.75;20.50;;;;;3.72;70.35;102301.75;4436368;32;13093;-84
2020/12/16 04:02:38;;;;;;;;;18.00;18.00;;;;;3.51;70.57;102284.94;4434366;32;12335;-82
2020/12/16 04:05:34;;;;;;;;;21.00;19.50;;;;;3.92;69.47;102296.66;4435208;32;13020;-83
2020/12/16 04:08:02;;;;;;;;;20.50;18.75;;;;;3.86;70.40;102311.31;4437595;32;12367;-83
2020/12/16 04:10:58;;;;;;;;;21.50;21.50;;;;;3.91;69.00;102300.47;4436630;32;12356;-83
2020/12/16 04:13:41;;;;;;;;;14.75;13.50;;;;;3.81;68.92;102308.47;4436363;32;12368;-81
2020/12/16 04:16:37;;;;;;;;;16.75;14.50;;;;;3.75;69.84;102315.75;4436182;32;12364;-82
2020/12/16 04:19:05;;;;;;;;;18.75;18.75;;;;;3.53;70.04;102318.37;4435537;32;12392;-81
2020/12/16 04:22:00;;;;;;;;;15.25;15.25;;;;;3.64;69.25;102322.13;4441135;32;12313;-82
2020/12/16 04:24:56;;;;;;;;;21.75;14.75;;;;;3.84;68.79;102313.47;4439817;32;12297;-80
2020/12/16 04:27:23;;;;;;;;;17.75;17.75;;;;;3.74;69.22;102310.53;4436070;32;12351;-81
2020/12/16 04:30:01;;;;;;;;;23.75;22.00;;;;;3.84;69.19;102305.25;4436320;32;12385;-78
2020/12/16 04:32:59;;;;;;;;;21.75;18.25;;;;;3.61;69.89;102315.25;4435776;32;12404;-81
2020/12/16 04:35:42;;;;;;;;;16.75;16.75;;;;;3.87;69.04;102315.72;4436253;32;12422;-81
2020/12/16 04:38:37;;;;;;;;;23.75;22.50;;;;;3.78;69.23;102319.94;4436160;32;12306;-82
2020/12/16 04:41:33;;;;;;;;;26.00;23.50;;;;;3.76;69.56;102320.19;4420752;32;12432;-81
2020/12/16 04:44:01;;;;;;;;;19.50;19.50;;;;;3.89;69.53;102327.22;4424586;32;12428;-81
2020/12/16 04:46:59;;;;;;;;;17.00;17.00;;;;;3.55;70.14;102329.91;4431763;32;12982;-80
2020/12/16 04:49:42;;;;;;;;;21.00;19.25;;;;;3.44;70.24;102336.22;4420455;32;12370;-82
2020/12/16 04:52:20;;;;;;;;;17.50;17.50;;;;;3.52;70.42;102338.56;4435621;32;12411;-84
2020/12/16 04:55:17;;;;;;;;;24.25;23.25;;;;;3.54;70.04;102341.09;4434586;32;13071;-85
2020/12/16 04:58:13;;;;;;;;;23.25;23.25;;;;;3.68;70.05;102341.59;4435008;32;12456;-84
2020/12/16 05:00:41;;;;;;;;;24.50;21.75;;;;;3.73;69.48;102337.06;4436188;32;12301;-82
2020/12/16 05:03:40;;;;;;;;;20.75;20.75;;;;;4.06;68.74;102347.25;4433576;32;12369;-84
2020/12/16 05:06:38;;;;;;;;;26.50;24.50;;;;;3.95;70.35;102353.62;4435213;32;12311;-82
2020/12/16 05:09:09;;;;;;;;;24.00;24.00;;;;;4.17;68.54;102354.56;4434326;32;12330;-82
2020/12/16 05:11:46;;;;;;;;;20.25;20.25;;;;;4.01;68.76;102360.88;4435692;32;12362;-81
2020/12/16 05:14:16;;;;;;;;;24.25;23.50;;;;;4.17;68.54;102365.53;4435378;32;12395;-81
2020/12/16 05:17:05;;;;;;;;;17.50;16.50;;;;;4.21;68.16;102365.03;4427093;32;12365;-83
2020/12/16 05:19:47;;;;;;;;;20.00;20.00;;;;;3.78;68.96;102361.81;4426497;32;12382;-79
2020/12/16 05:22:45;;;;;;;;;17.00;17.00;;;;;3.95;68.96;102367.31;4426800;32;12348;-82
2020/12/16 05:25:12;;;;;;;;;20.25;20.25;;;;;3.90;68.85;102370.78;4428946;32;12392;-81
2020/12/16 05:27:39;;;;;;;;;11.50;11.25;;;;;3.81;69.17;102372.25;4433446;32;12567;-83
2020/12/16 05:30:07;;;;;;;;;20.75;19.50;;;;;3.67;69.85;102375.53;4435852;32;12345;-83
2020/12/16 05:32:42;;;;;;;;;13.50;13.50;;;;;3.79;69.56;102377.16;4437066;32;12373;-85
2020/12/16 05:35:40;;;;;;;;;18.25;18.25;;;;;3.75;69.31;102381.44;4429999;32;12269;-84
2020/12/16 05:38:09;;;;;;;;;31.75;29.25;;;;;3.78;69.58;102393.81;4423243;32;12386;-85
2020/12/16 05:41:08;;;;;;;;;26.25;23.00;;;;;3.91;69.21;102393.53;4434345;32;12481;-76
2020/12/16 05:44:33;;;;;;;;;20.75;20.75;;;;;4.04;68.92;102393.22;4433919;32;12369;-76
2020/12/16 05:47:28;;;;;;;;;14.50;14.00;;;;;4.15;68.83;102403.28;4433797;32;12332;-76
2020/12/16 05:49:56;;;;;;;;;28.50;28.00;;;;;3.96;68.98;102401.00;4434216;32;12411;-77
2020/12/16 05:53:08;;;;;;;;;17.00;16.25;;;;;4.12;68.62;102400.19;4434056;32;12366;-76
2020/12/16 05:56:04;;;;;;;;;14.00;14.00;;;;;3.79;69.71;102404.53;4431761;32;12432;-73
2020/12/16 05:58:46;;;;;;;;;18.50;18.50;;;;;3.82;69.52;102403.19;4431394;32;12378;-76
2020/12/16 06:01:31;;;;;;;;;19.25;19.25;;;;;3.81;69.63;102404.28;4435909;32;12353;-76
2020/12/16 06:04:27;;;;;;;;;17.25;17.25;;;;;4.14;68.91;102407.13;4433611;32;12329;-76
2020/12/16 06:06:56;;;;;;;;;19.75;19.75;;;;;4.36;68.29;102409.94;4435028;32;12342;-76
2020/12/16 06:09:52;;;;;;;;;26.75;20.25;;;;;4.16;68.73;102398.66;4434171;32;12392;-77
2020/12/16 06:12:47;;;;;;;;;13.75;13.25;;;;;4.21;68.39;102408.84;4433701;32;12399;-76
2020/12/16 06:15:52;;;;;;;;;22.75;22.75;;;;;4.34;68.30;102406.63;4434548;32;12367;-76
2020/12/16 06:18:51;;;;;;;;;21.00;21.00;;;;;3.93;69.22;102402.31;4431499;32;12321;-76
2020/12/16 06:21:56;;;;;;;;;20.50;18.50;;;;;3.99;69.11;102398.63;4421381;32;12408;-76
2020/12/16 06:24:29;;;;;;;;;13.00;13.00;;;;;3.97;69.48;102402.66;4419393;32;12373;-76
2020/12/16 06:27:07;;;;;;;;;19.50;19.50;;;;;4.05;69.36;102411.31;4406905;32;12310;-76
2020/12/16 06:29:55;;;;;;;;;15.00;15.00;;;;;3.79;70.02;102414.62;4405641;32;12410;-77
2020/12/16 06:33:14;;;;;;;;;12.00;12.00;;;;;4.15;68.93;102406.03;4415423;32;12377;-76
2020/12/16 06:36:01;;;;;;;;;17.50;17.50;;;;;3.97;69.22;102424.56;4418231;32;13023;-76
2020/12/16 06:38:37;;;;;;;;;19.25;18.00;;;;;3.63;70.27;102432.66;4405503;32;12371;-77
2020/12/16 06:41:22;;;;;;;;;12.25;12.25;;;;;3.85;70.08;102417.25;4419133;32;12372;-75
2020/12/16 06:44:19;;;;;;;;;14.00;14.00;;;;;3.62;70.10;102428.25;4427032;32;12976;-76
2020/12/16 06:47:25;;;;;;;;;16.75;16.75;;;;;3.80;70.08;102430.81;4421344;32;12347;-75
2020/12/16 06:50:23;;;;;;;;;15.00;15.00;;;;;3.84;69.92;102428.44;4431576;32;12324;-77
2020/12/16 06:52:55;;;;;;;;;11.00;11.00;;;;;3.61;70.55;102423.88;4421201;32;12448;-76
2020/12/16 06:56:07;;;;;;;;;19.25;17.00;;;;;3.51;70.92;102426.37;3485943;32;30696944;-76
2020/12/16 06:59:03;;;;;;;;;19.50;18.75;;;;;3.49;71.19;102431.25;4431330;32;9014;-76
2020/12/16 07:02:11;;;;;;;;;20.50;20.50;;;;;3.61;70.99;102434.81;4431498;32;12314;-75
2020/12/16 07:05:44;;;;;;;;;29.00;27.25;;;;;3.80;70.28;102439.03;4432486;32;12969;-75
2020/12/16 07:08:27;;;;;;;;;24.00;20.75;;;;;4.10;69.53;102430.56;4433058;32;12993;-76
2020/12/16 07:11:38;;;;;;;;;12.00;11.50;;;;;4.03;69.36;102438.09;4433583;32;12376;-75
2020/12/16 07:14:35;;;;;;;;;16.25;16.25;;;;;3.83;70.19;102449.50;4433119;32;12354;-75
2020/12/16 07:17:30;;;;;;;;;13.25;13.25;;;;;3.85;69.83;102452.00;4432835;32;12343;-75
2020/12/16 07:20:00;;;;;;;;;14.25;14.25;;;;;3.82;70.10;102445.06;4420205;32;12359;-75
2020/12/16 07:22:27;;;;;;;;;20.75;20.75;;;;;3.91;69.80;102440.06;4433124;32;12326;-76
2020/12/16 07:24:59;;;;;;;;;15.00;15.00;;;;;4.06;69.48;102437.59;4432766;32;13027;-77
2020/12/16 07:27:28;;;;;;;;;17.25;16.75;;;;;3.86;70.30;102450.91;4443567;32;12360;-76
2020/12/16 07:29:59;;;;;;;;;15.50;15.50;;;;;3.78;70.36;102451.28;4429763;32;12316;-75
2020/12/16 07:33:13;;;;;;;;;15.00;15.00;;;;;3.65;71.10;102443.34;4417912;32;12331;-75
2020/12/16 07:35:45;;;;;;;;;18.00;18.00;;;;;3.72;70.93;102455.81;4418699;32;12334;-75
2020/12/16 07:38:49;;;;;;;;;13.00;13.00;;;;;3.75;70.91;102457.25;4417755;32;12388;-76
2020/12/16 07:41:45;;;;;;;;;14.75;14.75;;;;;3.74;70.69;102450.09;4417677;32;12440;-76
2020/12/16 07:44:44;;;;;;;;;14.75;14.00;;;;;3.67;71.11;102452.97;4425374;32;12463;-76
2020/12/16 07:47:21;;;;;;;;;14.50;14.50;;;;;3.66;71.23;102451.31;4433707;32;12376;-76
2020/12/16 07:50:16;;;;;;;;;12.00;12.00;;;;;3.73;70.67;102452.00;4431806;32;12318;-76
2020/12/16 07:53:06;;;;;;;;;18.50;18.00;;;;;3.93;70.35;102451.59;4432344;32;12418;-76
2020/12/16 07:56:04;;;;;;;;;15.50;14.75;;;;;4.26;69.73;102445.38;4433426;32;12316;-76
2020/12/16 07:59:11;;;;;;;;;14.75;14.75;;;;;4.08;69.69;102457.37;4433068;32;12322;-76
2020/12/16 08:02:08;;;;;;;;;15.25;15.00;;;;;3.85;70.25;102462.94;4434049;32;12311;-75
2020/12/16 08:05:04;;;;;;;;;18.00;15.00;;;;;4.00;69.83;102465.16;4433081;32;12441;-75
2020/12/16 08:07:32;;;;;;;;;19.00;19.00;;;;;4.16;69.48;102453.41;4434813;32;12308;-76
2020/12/16 08:10:03;;;;;;;;;23.75;22.50;;;;;4.09;69.76;102455.47;4432708;32;12299;-76
2020/12/16 08:13:00;;;;;;;;;26.75;26.50;;;;;4.17;69.64;102450.44;4432968;32;12356;-74
2020/12/16 08:15:41;;;;;;;;;22.25;22.25;;;;;4.19;69.57;102445.53;4433230;32;12332;-76
2020/12/16 08:18:41;;;;;;;;;8.25;8.25;;;;;3.93;70.04;102448.88;4432872;32;12339;-76
2020/12/16 08:21:22;;;;;;;;;17.75;16.75;;;;;3.73;70.15;102448.44;4433337;32;12259;-76
2020/12/16 08:24:17;;;;;;;;;11.50;11.25;;;;;3.53;70.89;102448.88;4433206;32;12390;-75
2020/12/16 08:27:18;;;;;;;;;11.50;11.50;;;;;3.87;69.83;102447.09;4432082;32;12307;-75
2020/12/16 08:30:16;;;;;;;;;16.50;16.50;;;;;3.79;70.31;102456.53;4432917;32;12324;-75
2020/12/16 08:33:17;;;;;;;;;11.00;11.00;;;;;3.59;70.64;102451.44;4431487;32;12331;-75
2020/12/16 08:36:08;;;;;;;;;19.25;19.00;;;;;3.82;69.88;102460.66;4434100;32;12334;-75
2020/12/16 08:38:43;;;;;;;;;17.50;14.75;;;;;3.59;70.45;102454.19;4437760;32;12325;-75
2020/12/16 08:41:14;;;;;;;;;22.00;20.75;;;;;3.94;69.65;102447.78;4436373;32;12331;-74
2020/12/16 08:43:42;;;;;;;;;14.50;14.50;;;;;3.94;69.51;102455.16;4436788;32;12392;-78
2020/12/16 08:46:09;;;;;;;;;14.00;12.25;;;;;3.93;69.59;102462.56;4437771;32;12363;-85
2020/12/16 08:49:00;;;;;;;;;14.25;14.25;;;;;4.13;68.77;102451.97;4425578;32;12339;-84
2020/12/16 08:51:33;;;;;;;;;16.00;16.00;;;;;4.17;68.58;102450.44;4437094;32;12296;-82
2020/12/16 08:54:29;;;;;;;;;15.25;15.25;;;;;4.22;68.44;102452.44;4426050;32;12386;-82
2020/12/16 08:57:25;;;;;;;;;12.25;11.75;;;;;4.11;68.98;102453.31;4424182;32;12382;-81
2020/12/16 09:00:07;;;;;;;;;19.75;19.00;;;;;4.31;67.97;102452.88;4433144;32;12239;-84
2020/12/16 09:03:08;;;;;;;;;12.00;12.00;;;;;4.37;67.88;102455.47;4447147;32;12326;-84
2020/12/16 09:05:40;;;;;;;;;15.75;15.00;;;;;3.92;68.96;102463.63;4436837;32;12288;-82
2020/12/16 09:08:14;;;;;;;;;16.25;15.00;;;;;4.12;68.42;102461.28;4434601;32;12304;-83
2020/12/16 09:11:10;;;;;;;;;15.75;15.00;;;;;4.02;68.72;102471.22;4434548;32;12373;-81
2020/12/16 09:14:08;;;;;;;;;26.75;24.50;;;;;4.06;68.71;102462.25;4431288;32;12331;-80
2020/12/16 09:16:35;;;;;;;;;14.25;14.25;;;;;4.26;68.02;102467.28;4438079;32;12285;-80
2020/12/16 09:19:31;;;;;;;;;14.25;12.50;;;;;3.96;68.51;102470.28;4450104;32;12295;-79
2020/12/16 09:22:29;;;;;;;;;12.75;12.25;;;;;4.16;68.39;102457.00;4436245;32;12361;-80
2020/12/16 09:25:25;;;;;;;;;10.00;10.00;;;;;3.92;68.88;102465.53;4432959;32;12320;-80
2020/12/16 09:28:19;;;;;;;;;42.00;38.00;;;;;3.88;69.12;102471.47;4424804;32;12387;-82
2020/12/16 09:31:16;;;;;;;;;8.75;8.75;;;;;4.16;68.25;102464.37;4423418;32;12452;-77
2020/12/16 09:34:02;;;;;;;;;8.00;8.00;;;;;3.85;68.60;102471.16;4435369;32;12427;-76
2020/12/16 09:37:15;;;;;;;;;12.50;12.50;;;;;3.70;68.88;102474.41;4434574;32;12289;-76
2020/12/16 09:39:47;;;;;;;;;10.00;10.00;;;;;3.64;69.30;102458.94;4435918;32;12337;-76
2020/12/16 09:42:17;;;;;;;;;15.50;15.50;;;;;3.81;69.28;102468.06;4435086;32;12396;-77
2020/12/16 09:45:20;;;;;;;;;14.25;14.25;;;;;3.94;68.64;102475.16;4433488;32;12302;-77
2020/12/16 09:47:52;;;;;;;;;11.25;11.25;;;;;4.06;68.35;102472.38;4434352;32;12955;-77
2020/12/16 09:50:48;;;;;;;;;16.50;16.50;;;;;4.01;68.33;102475.03;4434160;32;12310;-77
2020/12/16 09:53:44;;;;;;;;;14.75;13.25;;;;;3.95;68.69;102467.78;4433083;32;12362;-76
2020/12/16 09:56:40;;;;;;;;;11.00;10.50;;;;;3.87;68.52;102466.25;4434396;32;12316;-77
2020/12/16 09:59:18;;;;;;;;;18.00;18.00;;;;;4.14;67.46;102452.81;4420266;32;12262;-74
2020/12/16 10:02:15;;;;;;;;;15.00;15.00;;;;;4.13;67.26;102454.72;4426580;32;12372;-72
2020/12/16 10:05:11;;;;;;;;;10.50;10.50;;;;;4.04;67.81;102449.88;4433711;32;12331;-72
2020/12/16 10:08:16;;;;;;;;;14.75;14.75;;;;;3.93;68.51;102453.50;4433860;32;12484;-72
2020/12/16 10:10:46;;;;;;;;;20.00;20.00;;;;;4.35;67.71;102443.06;4443997;32;12411;-72
2020/12/16 10:13:44;;;;;;;;;2.00;2.00;;;;;4.23;67.45;102453.28;4434064;32;12341;-73
2020/12/16 10:16:19;;;;;;;;;14.50;14.50;;;;;4.08;67.94;102449.16;4434637;32;12263;-72
2020/12/16 10:19:18;;;;;;;;;10.75;10.75;;;;;4.05;68.01;102441.41;4435621;32;12485;-71
2020/12/16 10:21:49;;;;;;;;;14.00;12.25;;;;;4.06;67.45;102445.81;4434881;32;12274;-71
2020/12/16 10:24:46;;;;;;;;;9.50;9.50;;;;;4.12;67.42;102452.22;4434198;32;12362;-73
2020/12/16 10:27:41;;;;;;;;;17.00;17.00;;;;;3.81;68.42;102450.78;4434064;32;12376;-71
2020/12/16 10:30:09;;;;;;;;;19.50;19.50;;;;;3.93;67.89;102435.19;4435433;32;12321;-74
2020/12/16 10:33:05;;;;;;;;;20.00;20.00;;;;;4.02;68.03;102438.34;4433947;32;12376;-73
2020/12/16 10:35:34;;;;;;;;;22.25;21.75;;;;;4.08;67.84;102440.94;4433315;32;12313;-72
2020/12/16 10:38:10;;;;;;;;;21.00;18.75;;;;;4.01;67.96;102432.06;4428180;32;12366;-72
2020/12/16 10:40:56;;;;;;;;;18.75;18.00;;;;;4.12;67.92;102441.28;4432868;32;12327;-72
2020/12/16 10:43:25;;;;;;;;;21.75;19.25;;;;;3.92;68.16;102439.00;4433312;32;12328;-72
2020/12/16 10:45:52;;;;;;;;;12.00;12.00;;;;;3.84;68.57;102453.06;4423632;32;12369;-71
2020/12/16 10:48:49;;;;;;;;;14.75;14.75;;;;;4.00;68.19;102440.50;4418003;32;12407;-72
2020/12/16 10:51:44;;;;;;;;;14.50;14.50;;;;;3.83;68.76;102456.84;4418446;32;12365;-71
2020/12/16 10:54:11;;;;;;;;;8.00;8.00;;;;;3.85;68.88;102452.81;4427797;32;12363;-71
2020/12/16 10:56:39;;;;;;;;;40.25;37.75;;;;;3.86;68.80;102446.25;4432455;32;12255;-71
2020/12/16 10:59:08;;;;;;;;;20.75;20.25;;;;;3.77;69.05;102447.72;4433113;32;12343;-72
2020/12/16 11:02:04;;;;;;;;;21.50;17.00;;;;;4.01;68.57;102448.47;4433166;32;13264;-72
2020/12/16 11:04:59;;;;;;;;;17.50;15.50;;;;;4.00;68.60;102444.09;4431823;32;13025;-72
2020/12/16 11:07:55;;;;;;;;;21.00;20.50;;;;;3.90;68.55;102454.81;4433449;32;12340;-73
2020/12/16 11:10:51;;;;;;;;;22.00;22.00;;;;;4.16;68.25;102450.69;4433990;32;12452;-73
2020/12/16 11:13:33;;;;;;;;;28.50;24.25;;;;;3.94;68.76;102458.75;4433869;32;12328;-72
2020/12/16 11:16:30;;;;;;;;;30.75;29.25;;;;;4.06;68.47;102451.28;4421249;32;12405;-75
2020/12/16 11:19:15;;;;;;;;;19.50;19.00;;;;;4.27;68.01;102458.00;4416815;32;12397;-76
2020/12/16 11:21:46;;;;;;;;;19.75;19.00;;;;;4.27;68.15;102451.69;4423601;32;12982;-76
2020/12/16 11:24:43;;;;;;;;;22.50;22.25;;;;;4.07;68.47;102458.47;4432479;32;12348;-76
2020/12/16 11:27:19;;;;;;;;;18.50;18.50;;;;;4.21;67.98;102469.94;4432093;32;12323;-77
2020/12/16 11:30:08;;;;;;;;;25.25;24.50;;;;;4.40;67.64;102462.34;4433543;32;12346;-76
2020/12/16 11:33:04;;;;;;;;;21.75;21.00;;;;;4.43;67.42;102459.09;4431917;32;12378;-76
2020/12/16 11:35:33;;;;;;;;;19.00;19.00;;;;;4.05;68.23;102457.03;4433154;32;12397;-75
2020/12/16 11:38:28;;;;;;;;;25.50;23.00;;;;;3.94;68.57;102474.34;4431472;32;12994;-75
2020/12/16 11:40:55;;;;;;;;;19.00;19.00;;;;;4.13;67.91;102471.16;4433494;32;12347;-76
2020/12/16 11:43:51;;;;;;;;;20.25;20.25;;;;;3.95;68.44;102476.00;4434923;32;12371;-73
2020/12/16 11:46:19;;;;;;;;;11.50;11.50;;;;;3.89;68.44;102483.25;4426115;32;12289;-72
2020/12/16 11:48:56;;;;;;;;;15.25;15.25;;;;;4.15;67.54;102477.25;4434007;32;12438;-74
2020/12/16 11:51:53;;;;;;;;;15.75;15.75;;;;;4.15;67.40;102469.03;4436747;32;12391;-72
2020/12/16 11:54:49;;;;;;;;;21.75;21.75;;;;;4.22;67.17;102470.75;4417832;32;12330;-74
2020/12/16 11:57:40;;;;;;;;;11.75;11.75;;;;;4.15;67.56;102471.75;4437330;32;12339;-72
2020/12/16 12:00:36;;;;;;;;;19.75;15.25;;;;;4.07;67.66;102479.53;4417635;32;13090;-73
2020/12/16 12:03:35;;;;;;;;;18.50;16.50;;;;;4.21;67.59;102466.34;4432638;32;12412;-73
2020/12/16 12:06:31;;;;;;;;;22.00;22.00;;;;;4.23;67.47;102475.19;4432010;32;13032;-73
2020/12/16 12:09:16;;;;;;;;;22.00;22.00;;;;;4.13;67.73;102475.78;4433397;32;12429;-73
2020/12/16 12:11:44;;;;;;;;;23.75;23.00;;;;;4.46;67.21;102483.28;4436856;32;12361;-73
2020/12/16 12:14:40;;;;;;;;;22.75;22.50;;;;;4.32;67.28;102482.75;4446459;32;12326;-73
2020/12/16 12:17:29;;;;;;;;;28.25;25.00;;;;;4.60;66.91;102479.16;4437565;32;12307;-73
2020/12/16 12:20:26;;;;;;;;;27.25;25.25;;;;;4.58;66.77;102475.00;4436992;32;12368;-73
2020/12/16 12:23:21;;;;;;;;;16.00;16.00;;;;;4.18;67.91;102475.91;4439974;32;13050;-72
2020/12/16 12:25:49;;;;;;;;;19.25;19.00;;;;;3.96;68.58;102478.47;4449908;32;12300;-74
2020/12/16 12:28:45;;;;;;;;;23.00;21.50;;;;;4.06;68.46;102475.09;4442947;32;12408;-73
2020/12/16 12:31:34;;;;;;;;;23.50;23.50;;;;;4.15;68.14;102477.25;4435915;32;12374;-74
2020/12/16 12:34:02;;;;;;;;;21.25;20.50;;;;;3.99;68.56;102485.38;4438790;32;12371;-73
2020/12/16 12:36:29;;;;;;;;;22.25;22.25;;;;;3.90;69.13;102477.53;4435807;32;12344;-73
2020/12/16 12:38:57;;;;;;;;;17.00;15.50;;;;;4.03;68.52;102489.28;4435110;32;12315;-73
2020/12/16 12:41:53;;;;;;;;;20.75;18.25;;;;;3.72;68.84;102487.84;4438849;32;12323;-73
2020/12/16 12:44:23;;;;;;;;;12.00;12.00;;;;;4.35;67.44;102486.91;4446825;32;12346;-74
2020/12/16 12:46:50;;;;;;;;;15.25;13.50;;;;;4.42;66.96;102490.31;4435028;32;12315;-74